createdAt,value
2018-04-25T00:01:15.096Z,25.43
2018-04-25T00:03:49.555Z,24.50
2018-04-25T00:06:24.406Z,26.03
2018-04-25T00:08:58.954Z,25.60
2018-04-25T00:11:33.530Z,24.80
2018-04-25T00:14:08.122Z,22.43
2018-04-25T00:16:42.883Z,21.17
2018-04-25T00:19:17.558Z,23.10
2018-04-25T00:21:52.656Z,24.53
2018-04-25T00:24:27.455Z,22.30
2018-04-25T00:27:02.450Z,20.80
2018-04-25T00:29:37.150Z,22.37
2018-04-25T00:32:11.511Z,21.90
2018-04-25T00:34:46.807Z,18.87
2018-04-25T00:37:21.490Z,20.60
2018-04-25T00:39:56.482Z,21.67
2018-04-25T00:42:31.141Z,24.00
2018-04-25T00:45:05.726Z,20.93
2018-04-25T00:47:40.375Z,22.37
2018-04-25T00:50:15.086Z,22.40
2018-04-25T00:52:50.150Z,21.27
2018-04-25T00:55:24.766Z,21.40
2018-04-25T00:57:59.515Z,22.87
2018-04-25T01:00:34.388Z,21.80
2018-04-25T01:03:09.347Z,21.73
2018-04-25T01:05:43.366Z,19.57
2018-04-25T01:08:17.528Z,21.40
2018-04-25T01:10:52.506Z,20.00
2018-04-25T01:13:27.372Z,21.77
2018-04-25T01:16:02.329Z,21.77
2018-04-25T01:18:36.653Z,22.63
2018-04-25T01:21:11.514Z,22.90
2018-04-25T01:23:46.272Z,21.60
2018-04-25T01:26:20.534Z,22.60
2018-04-25T01:28:55.925Z,20.47
2018-04-25T01:31:41.184Z,21.30
2018-04-25T01:34:20.200Z,21.33
2018-04-25T01:37:01.471Z,21.50
2018-04-25T01:39:41.148Z,20.67
2018-04-25T01:42:16.262Z,21.23
2018-04-25T01:44:52.494Z,21.00
2018-04-25T01:47:30.818Z,21.30
2018-04-25T01:50:16.639Z,21.37
2018-04-25T01:53:02.199Z,20.30
2018-04-25T01:55:47.811Z,20.07
2018-04-25T01:58:33.359Z,19.73
2018-04-25T02:01:19.126Z,21.83
2018-04-25T02:03:54.306Z,22.27
2018-04-25T02:06:29.405Z,21.47
2018-04-25T02:09:03.731Z,20.90
2018-04-25T02:11:38.850Z,20.63
2018-04-25T02:14:13.730Z,22.40
2018-04-25T02:16:48.531Z,22.67
2018-04-25T02:19:23.323Z,23.50
2018-04-25T02:21:58.118Z,23.03
2018-04-25T02:24:32.915Z,22.73
2018-04-25T02:27:07.710Z,24.10
2018-04-25T02:29:42.531Z,24.20
2018-04-25T02:32:17.424Z,23.47
2018-04-25T02:34:52.142Z,24.97
2018-04-25T02:37:26.701Z,24.50
2018-04-25T02:40:01.718Z,24.93
2018-04-25T02:42:36.748Z,23.23
2018-04-25T02:45:11.652Z,21.80
2018-04-25T02:47:46.651Z,24.40
2018-04-25T02:50:21.639Z,24.00
2018-04-25T02:52:56.625Z,23.73
2018-04-25T02:55:31.451Z,24.23
2018-04-25T02:58:06.434Z,24.80
2018-04-25T03:00:41.227Z,23.20
2018-04-25T03:03:16.213Z,22.77
2018-04-25T03:05:51.011Z,23.70
2018-04-25T03:08:25.900Z,23.47
2018-04-25T03:11:00.686Z,21.90
2018-04-25T03:13:35.527Z,22.60
2018-04-25T03:16:10.351Z,23.97
2018-04-25T03:18:45.335Z,27.23
2018-04-25T03:21:20.248Z,27.37
2018-04-25T03:23:55.069Z,26.00
2018-04-25T03:26:30.061Z,24.97
2018-04-25T03:29:14.108Z,18.90
2018-04-25T03:31:49.397Z,20.80
2018-04-25T03:34:24.282Z,21.57
2018-04-25T03:36:59.170Z,21.90
2018-04-25T03:39:34.298Z,24.57
2018-04-25T03:42:09.583Z,24.77
2018-04-25T03:44:44.673Z,26.43
2018-04-25T03:47:19.466Z,28.67
2018-04-25T03:49:54.350Z,28.10
2018-04-25T03:52:29.371Z,28.13
2018-04-25T03:55:04.226Z,26.73
2018-04-25T03:57:39.333Z,26.23
2018-04-25T04:00:14.219Z,22.33
2018-04-25T04:02:49.323Z,22.60
2018-04-25T04:05:24.022Z,22.10
2018-04-25T04:07:58.717Z,21.80
2018-04-25T04:10:33.625Z,19.10
2018-04-25T04:13:08.526Z,19.93
2018-04-25T04:15:43.511Z,17.93
2018-04-25T04:18:18.307Z,17.83
2018-04-25T04:20:53.195Z,19.83
2018-04-25T04:23:27.898Z,18.50
2018-04-25T04:26:02.610Z,15.37
2018-04-25T04:28:37.206Z,15.83
2018-04-25T04:31:12.034Z,17.20
2018-04-25T04:33:46.727Z,16.97
2018-04-25T04:36:21.722Z,14.70
2018-04-25T04:38:56.182Z,16.10
2018-04-25T04:41:31.302Z,15.57
2018-04-25T04:44:06.200Z,15.07
2018-04-25T04:46:41.145Z,15.27
2018-04-25T04:49:15.934Z,13.37
2018-04-25T04:51:50.809Z,14.50
2018-04-25T04:54:25.603Z,13.27
2018-04-25T04:57:00.360Z,12.60
2018-04-25T04:59:35.418Z,11.83
2018-04-25T05:02:10.171Z,9.30
2018-04-25T05:04:45.067Z,9.87
2018-04-25T05:07:19.870Z,10.43
2018-04-25T05:09:54.838Z,9.47
2018-04-25T05:12:29.858Z,8.07
2018-04-25T05:15:04.083Z,9.50
2018-04-25T05:17:39.378Z,7.23
2018-04-25T05:20:14.479Z,7.80
2018-04-25T05:22:49.319Z,8.83
2018-04-25T05:25:24.311Z,7.23
2018-04-25T05:27:59.085Z,6.33
2018-04-25T05:30:33.669Z,7.50
2018-04-25T05:33:08.404Z,7.70
2018-04-25T05:35:43.211Z,7.50
2018-04-25T05:38:17.800Z,6.73
2018-04-25T05:40:52.694Z,7.90
2018-04-25T05:43:27.307Z,8.60
2018-04-25T05:46:01.946Z,8.00
2018-04-25T05:48:36.586Z,9.00
2018-04-25T05:51:11.222Z,7.97
2018-04-25T05:53:46.024Z,8.10
2018-04-25T05:56:21.082Z,8.90
2018-04-25T05:58:55.503Z,6.97
2018-04-25T06:01:30.288Z,9.70
2018-04-25T06:04:05.072Z,9.60
2018-04-25T06:06:39.745Z,9.80
2018-04-25T06:09:14.650Z,10.50
2018-04-25T06:11:49.950Z,10.53
2018-04-25T06:14:24.951Z,10.97
2018-04-25T06:16:59.850Z,11.27
2018-04-25T06:19:34.938Z,11.50
2018-04-25T06:22:09.730Z,8.87
2018-04-25T06:24:44.706Z,8.50
2018-04-25T06:27:19.704Z,9.63
2018-04-25T06:29:54.387Z,7.50
2018-04-25T06:32:29.207Z,6.93
2018-04-25T06:35:04.202Z,6.50
2018-04-25T06:37:39.356Z,7.10
2018-04-25T06:40:14.163Z,4.53
2018-04-25T06:42:49.155Z,4.00
2018-04-25T06:45:24.323Z,4.07
2018-04-25T06:47:59.416Z,4.60
2018-04-25T06:50:34.788Z,3.43
2018-04-25T06:53:10.135Z,4.70
2018-04-25T06:55:45.417Z,3.57
2018-04-25T06:58:20.286Z,3.50
2018-04-25T07:00:55.485Z,4.00
2018-04-25T07:03:30.662Z,3.83
2018-04-25T07:06:05.547Z,3.23
2018-04-25T07:08:40.358Z,3.43
2018-04-25T07:11:15.040Z,3.10
2018-04-25T07:13:50.005Z,3.70
2018-04-25T07:16:24.801Z,3.00
2018-04-25T07:18:59.503Z,3.70
2018-04-25T07:21:34.115Z,11.00
2018-04-25T07:24:09.058Z,3.30
2018-04-25T07:26:44.043Z,3.67
2018-04-25T07:29:18.977Z,3.80
2018-04-25T07:31:53.972Z,3.67
2018-04-25T07:34:29.047Z,4.10
2018-04-25T07:37:03.435Z,6.57
2018-04-25T07:39:38.419Z,4.47
2018-04-25T07:42:13.247Z,3.60
2018-04-25T07:44:48.055Z,3.13
2018-04-25T07:47:22.865Z,3.90
2018-04-25T07:49:57.803Z,3.70
2018-04-25T07:52:32.582Z,3.50
2018-04-25T07:55:07.270Z,4.20
2018-04-25T07:57:42.131Z,5.13
2018-04-25T08:00:16.698Z,3.90
2018-04-25T08:02:51.408Z,4.67
2018-04-25T08:05:26.078Z,5.10
2018-04-25T08:08:00.881Z,3.90
2018-04-25T08:10:35.571Z,5.00
2018-04-25T08:13:21.480Z,5.07
2018-04-25T08:16:07.059Z,3.33
2018-04-25T08:21:41.570Z,4.23
2018-04-25T08:24:16.162Z,3.70
2018-04-25T08:26:50.768Z,3.67
2018-04-25T08:29:25.450Z,2.77
2018-04-25T08:32:00.166Z,3.83
2018-04-25T08:34:34.682Z,3.90
2018-04-25T08:37:09.152Z,3.43
2018-04-25T08:39:43.940Z,4.47
2018-04-25T08:42:18.721Z,3.37
2018-04-25T08:45:02.643Z,3.43
2018-04-25T08:47:37.776Z,2.87
2018-04-25T08:50:12.488Z,2.10
2018-04-25T08:52:47.324Z,1.83
2018-04-25T08:55:21.964Z,1.90
2018-04-25T08:57:56.448Z,1.33
2018-04-25T09:00:30.793Z,1.60
2018-04-25T09:03:05.347Z,1.43
2018-04-25T09:05:40.124Z,1.40
2018-04-25T09:08:14.654Z,1.27
2018-04-25T09:10:49.374Z,1.10
2018-04-25T09:13:24.001Z,1.10
2018-04-25T09:15:58.616Z,1.20
2018-04-25T09:18:33.097Z,1.90
2018-04-25T09:21:08.051Z,1.73
2018-04-25T09:23:42.925Z,1.50
2018-04-25T09:26:17.651Z,1.70
2018-04-25T09:28:52.375Z,1.10
2018-04-25T09:31:26.986Z,1.47
2018-04-25T09:34:01.471Z,1.80
2018-04-25T09:36:35.960Z,1.57
2018-04-25T09:39:10.649Z,1.77
2018-04-25T09:41:45.556Z,1.67
2018-04-25T09:44:20.370Z,1.43
2018-04-25T09:46:54.974Z,1.60
2018-04-25T09:49:29.778Z,1.30
2018-04-25T09:52:04.278Z,1.33
2018-04-25T09:54:38.987Z,1.40
2018-04-25T09:57:13.680Z,1.80
2018-04-25T09:59:48.505Z,1.50
2018-04-25T10:02:28.428Z,1.30
2018-04-25T10:05:03.602Z,1.53
2018-04-25T10:07:38.784Z,1.37
2018-04-25T10:10:13.478Z,1.40
2018-04-25T10:12:48.382Z,1.33
2018-04-25T10:15:23.001Z,1.00
2018-04-25T10:17:57.881Z,1.10
2018-04-25T10:20:32.588Z,1.03
2018-04-25T10:23:07.196Z,0.70
2018-04-25T10:25:42.007Z,1.73
2018-04-25T10:28:16.795Z,0.87
2018-04-25T10:30:51.579Z,1.00
2018-04-25T10:33:26.259Z,0.90
2018-04-25T10:36:00.936Z,0.70
2018-04-25T10:38:35.630Z,0.80
2018-04-25T10:41:10.182Z,0.90
2018-04-25T10:43:45.084Z,1.00
2018-04-25T10:46:19.667Z,1.07
2018-04-25T10:48:54.429Z,0.83
2018-04-25T10:51:29.226Z,0.97
2018-04-25T10:54:03.932Z,1.10
2018-04-25T10:56:38.717Z,1.37
2018-04-25T10:59:13.405Z,1.03
2018-04-25T11:01:48.082Z,1.13
2018-04-25T11:04:22.829Z,1.20
2018-04-25T11:06:57.462Z,1.20
2018-04-25T11:09:32.356Z,1.50
2018-04-25T11:12:06.845Z,1.73
2018-04-25T11:14:41.677Z,1.40
2018-04-25T11:17:16.380Z,1.73
2018-04-25T11:19:51.203Z,1.90
2018-04-25T11:22:25.990Z,1.40
2018-04-25T11:25:00.595Z,1.17
2018-04-25T11:27:36.095Z,1.07
2018-04-25T11:30:10.989Z,1.47
2018-04-25T11:32:45.765Z,1.30
2018-04-25T11:35:20.545Z,0.80
2018-04-25T11:37:55.338Z,1.80
2018-04-25T11:40:30.028Z,1.30
2018-04-25T11:43:05.115Z,1.53
2018-04-25T11:45:39.862Z,1.63
2018-04-25T11:48:14.451Z,1.30
2018-04-25T11:50:49.373Z,1.57
2018-04-25T11:53:24.049Z,1.90
2018-04-25T11:55:59.070Z,1.87
2018-04-25T11:58:34.070Z,1.60
2018-04-25T12:01:08.962Z,2.00
2018-04-25T12:03:43.478Z,2.13
2018-04-25T12:06:18.085Z,1.87
2018-04-25T12:08:52.874Z,1.80
2018-04-25T12:11:27.445Z,1.80
2018-04-25T12:14:02.157Z,1.90
2018-04-25T12:16:36.834Z,2.03
2018-04-25T12:19:11.277Z,2.07
2018-04-25T12:21:46.283Z,1.70
2018-04-25T12:24:21.055Z,2.20
2018-04-25T12:26:55.589Z,1.77
2018-04-25T12:29:30.289Z,1.90
2018-04-25T12:32:05.002Z,2.30
2018-04-25T12:34:39.943Z,2.10
2018-04-25T12:37:14.603Z,2.67
2018-04-25T12:39:49.295Z,3.07
2018-04-25T12:42:23.801Z,2.27
2018-04-25T12:44:58.587Z,2.43
2018-04-25T12:47:33.481Z,3.43
2018-04-25T12:50:08.119Z,2.80
2018-04-25T12:52:43.140Z,2.63
2018-04-25T12:55:17.682Z,3.10
2018-04-25T12:57:52.706Z,2.80
2018-04-25T13:00:27.213Z,2.30
2018-04-25T13:03:01.951Z,2.60
2018-04-25T13:05:36.970Z,2.83
2018-04-25T13:08:11.561Z,2.43
2018-04-25T13:10:46.250Z,2.00
2018-04-25T13:13:21.661Z,2.37
2018-04-25T13:15:56.386Z,2.63
2018-04-25T13:18:31.160Z,4.73
2018-04-25T13:21:06.038Z,3.03
2018-04-25T13:23:40.837Z,2.80
2018-04-25T13:26:15.724Z,3.23
2018-04-25T13:28:50.395Z,3.10
2018-04-25T13:31:25.203Z,2.90
2018-04-25T13:33:59.701Z,2.60
2018-04-25T13:36:34.435Z,2.83
2018-04-25T13:39:09.218Z,3.80
2018-04-25T13:41:43.918Z,4.33
2018-04-25T13:44:18.718Z,4.00
2018-04-25T13:46:53.395Z,4.87
2018-04-25T13:49:28.854Z,3.80
2018-04-25T13:52:03.574Z,4.43
2018-04-25T13:54:38.266Z,3.60
2018-04-25T13:57:12.877Z,3.20
2018-04-25T13:59:47.458Z,2.67
2018-04-25T14:02:22.138Z,3.00
2018-04-25T14:04:57.170Z,3.30
2018-04-25T14:07:31.929Z,3.20
2018-04-25T14:10:06.739Z,3.20
2018-04-25T14:12:41.524Z,3.57
2018-04-25T14:15:16.329Z,4.50
2018-04-25T14:17:50.911Z,5.43
2018-04-25T14:20:25.399Z,4.57
2018-04-25T14:22:59.883Z,4.73
2018-04-25T14:25:34.484Z,5.83
2018-04-25T14:28:09.068Z,4.00
2018-04-25T14:30:44.124Z,9.60
2018-04-25T14:33:19.026Z,4.77
2018-04-25T14:35:54.029Z,7.13
2018-04-25T14:38:28.867Z,9.23
2018-04-25T14:41:03.693Z,9.50
2018-04-25T14:43:38.574Z,18.27
2018-04-25T14:46:13.067Z,6.23
2018-04-25T14:48:47.774Z,5.73
2018-04-25T14:51:22.588Z,7.37
2018-04-25T14:53:57.386Z,5.83
2018-04-25T14:56:32.286Z,6.10
2018-04-25T14:59:07.167Z,6.37
2018-04-25T15:01:42.055Z,5.00
2018-04-25T15:04:16.882Z,5.63
2018-04-25T15:06:51.485Z,5.50
2018-04-25T15:09:26.169Z,5.13
2018-04-25T15:12:01.216Z,5.73
2018-04-25T15:14:35.794Z,6.73
2018-04-25T15:17:10.668Z,7.00
2018-04-25T15:19:45.718Z,5.93
2018-04-25T15:22:20.385Z,6.10
2018-04-25T15:24:55.214Z,6.43
2018-04-25T15:27:29.796Z,5.90
2018-04-25T15:30:03.939Z,5.90
2018-04-25T15:32:39.034Z,6.40
2018-04-25T15:35:13.917Z,7.10
2018-04-25T15:37:48.900Z,8.30
2018-04-25T15:40:23.773Z,5.53
2018-04-25T15:42:58.358Z,5.00
2018-04-25T15:45:32.877Z,5.40
2018-04-25T15:48:07.470Z,4.40
2018-04-25T15:50:41.965Z,5.93
2018-04-25T15:53:16.428Z,6.10
2018-04-25T15:55:51.444Z,5.37
2018-04-25T15:58:26.140Z,4.37
2018-04-25T16:01:00.773Z,4.80
2018-04-25T16:03:36.253Z,5.33
2018-04-25T16:06:11.064Z,5.03
2018-04-25T16:08:45.753Z,5.47
2018-04-25T16:11:20.448Z,5.50
2018-04-25T16:13:55.360Z,4.87
2018-04-25T16:16:30.067Z,4.73
2018-04-25T16:19:04.795Z,4.43
2018-04-25T16:21:39.411Z,4.47
2018-04-25T16:24:14.118Z,5.47
2018-04-25T16:26:48.913Z,5.67
2018-04-25T16:29:23.427Z,5.17
2018-04-25T16:31:58.222Z,4.23
2018-04-25T16:34:32.943Z,4.90
2018-04-25T16:37:07.439Z,5.60
2018-04-25T16:39:42.551Z,5.83
2018-04-25T16:42:17.233Z,6.53
2018-04-25T16:44:51.848Z,5.23
2018-04-25T16:47:26.453Z,5.20
2018-04-25T16:50:01.243Z,6.00
2018-04-25T16:52:35.822Z,6.40
2018-04-25T16:55:10.526Z,6.20
2018-04-25T16:57:45.409Z,3.73
2018-04-25T17:00:19.892Z,3.27
2018-04-25T17:02:54.795Z,4.10
2018-04-25T17:05:29.481Z,3.77
2018-04-25T17:08:04.278Z,3.87
2018-04-25T17:10:39.005Z,3.93
2018-04-25T17:13:13.621Z,4.30
2018-04-25T17:15:48.406Z,3.43
2018-04-25T17:18:22.934Z,4.07
2018-04-25T17:20:57.647Z,4.17
2018-04-25T17:23:32.163Z,4.47
2018-04-25T17:26:06.852Z,4.00
2018-04-25T17:28:41.538Z,4.00
2018-04-25T17:31:16.152Z,3.30
2018-04-25T17:33:50.951Z,4.47
2018-04-25T17:36:25.568Z,3.90
2018-04-25T17:39:00.141Z,3.60
2018-04-25T17:41:34.843Z,3.60
2018-04-25T17:44:09.438Z,3.70
2018-04-25T17:46:44.081Z,3.60
2018-04-25T18:01:06.658Z,4.07
2018-04-25T18:03:41.266Z,4.30
2018-04-25T18:06:16.079Z,4.30
2018-04-25T18:08:50.780Z,4.30
2018-04-25T18:11:25.426Z,3.90
2018-04-25T18:14:00.159Z,4.00
2018-04-25T18:16:34.719Z,4.10
2018-04-25T18:19:09.514Z,3.70
2018-04-25T18:21:44.117Z,3.70
2018-04-25T18:24:18.830Z,3.80
2018-04-25T18:26:53.522Z,3.83
2018-04-25T18:29:28.236Z,4.00
2018-04-25T18:32:02.927Z,3.80
2018-04-25T18:34:37.622Z,4.33
2018-04-25T18:37:12.616Z,4.20
2018-04-25T18:39:47.199Z,4.07
2018-04-25T18:42:21.689Z,3.33
2018-04-25T18:44:56.580Z,3.67
2018-04-25T18:47:31.307Z,4.00
2018-04-25T18:50:06.191Z,3.77
2018-04-25T18:52:41.096Z,4.50
2018-04-25T18:55:15.791Z,4.30
2018-04-25T19:03:47.488Z,4.33
2018-04-25T19:06:22.670Z,4.40
2018-04-25T19:08:57.702Z,4.37
2018-04-25T19:11:32.589Z,4.23
2018-04-25T19:14:07.587Z,4.93
2018-04-25T19:16:42.589Z,4.70
2018-04-25T19:19:17.692Z,4.60
2018-04-25T19:21:52.681Z,4.53
2018-04-25T19:24:27.387Z,4.83
2018-04-25T19:27:02.527Z,4.90
2018-04-25T19:29:37.430Z,5.07
2018-04-25T19:32:12.311Z,5.30
2018-04-25T19:34:47.214Z,5.50
2018-04-25T19:37:22.024Z,5.27
2018-04-25T19:39:56.914Z,5.20
2018-04-25T19:42:31.723Z,5.70
2018-04-25T19:45:06.579Z,7.53
2018-04-25T19:47:41.378Z,7.83
2018-04-25T19:50:16.456Z,9.03
2018-04-25T19:52:51.566Z,7.77
2018-04-25T19:55:26.475Z,6.00
2018-04-25T19:58:01.480Z,6.00
2018-04-25T20:00:36.906Z,5.90
2018-04-25T20:03:12.086Z,5.97
2018-04-25T20:05:46.686Z,5.40
2018-04-25T20:08:21.716Z,5.80
2018-04-25T20:10:56.782Z,6.33
2018-04-25T20:13:31.739Z,5.77
2018-04-25T20:16:06.927Z,6.17
2018-04-25T20:18:41.926Z,6.87
2018-04-25T20:21:16.725Z,7.23
2018-04-25T20:23:51.617Z,7.10
2018-04-25T20:26:26.222Z,6.73
2018-04-25T20:29:01.218Z,6.87
2018-04-25T20:31:36.402Z,7.37
2018-04-25T20:34:11.494Z,6.90
2018-04-25T20:36:46.702Z,7.67
2018-04-25T20:39:21.738Z,9.40
2018-04-25T20:41:56.943Z,9.17
2018-04-25T20:44:31.943Z,10.27
2018-04-25T20:47:07.139Z,9.57
2018-04-25T20:49:42.107Z,9.30
2018-04-25T20:52:17.319Z,9.47
2018-04-25T20:54:52.422Z,9.10
2018-04-25T20:57:26.851Z,9.13
2018-04-25T21:00:01.926Z,9.03
2018-04-25T21:02:36.852Z,8.60
2018-04-25T21:05:12.226Z,8.57
2018-04-25T21:07:47.528Z,9.50
2018-04-25T21:10:23.301Z,8.23
2018-04-25T21:12:58.590Z,8.70
2018-04-25T21:15:33.566Z,9.40
2018-04-25T21:18:08.702Z,10.27
2018-04-25T21:20:43.882Z,10.40
2018-04-25T21:23:18.875Z,10.37
2018-04-25T21:25:53.894Z,11.13
2018-04-25T21:28:29.183Z,11.50
2018-04-25T21:31:04.290Z,10.50
2018-04-25T21:33:39.487Z,9.90
2018-04-25T21:36:14.279Z,10.53
2018-04-25T21:38:49.340Z,10.40
2018-04-25T21:41:24.307Z,9.93
2018-04-25T21:43:59.559Z,10.93
2018-04-25T21:46:34.645Z,11.77
2018-04-25T21:49:09.858Z,10.70
2018-04-25T21:51:44.975Z,11.43
2018-04-25T21:54:19.363Z,10.27
2018-04-25T21:56:54.353Z,9.47
2018-04-25T21:59:29.380Z,10.50
2018-04-25T22:02:04.482Z,8.67
2018-04-25T22:04:39.554Z,9.13
2018-04-25T22:07:14.539Z,10.40
2018-04-25T22:09:49.812Z,9.90
2018-04-25T22:12:24.898Z,9.67
2018-04-25T22:15:00.099Z,10.10
2018-04-25T22:17:35.087Z,9.17
2018-04-25T22:20:10.170Z,9.80
2018-04-25T22:22:45.162Z,8.50
2018-04-25T22:25:20.245Z,9.47
2018-04-25T22:27:55.270Z,9.30
2018-04-25T22:30:30.454Z,8.17
2018-04-25T22:33:05.252Z,8.77
2018-04-25T22:35:39.931Z,8.17
2018-04-25T22:38:14.938Z,9.33
2018-04-25T22:40:49.786Z,9.27
2018-04-25T22:43:24.730Z,8.80
2018-04-25T22:45:59.896Z,9.70
2018-04-25T22:48:34.687Z,9.83
2018-04-25T22:51:09.591Z,9.90
2018-04-25T22:53:43.983Z,9.17
2018-04-25T22:56:19.404Z,8.43
2018-04-25T22:58:54.315Z,9.00
2018-04-25T23:01:29.316Z,8.40
2018-04-25T23:04:04.598Z,9.27
2018-04-25T23:06:39.611Z,9.07
2018-04-25T23:09:13.997Z,8.40
2018-04-25T23:11:49.008Z,7.10
2018-04-25T23:14:23.983Z,7.73
2018-04-25T23:16:58.964Z,7.10
2018-04-25T23:19:33.844Z,6.90
2018-04-25T23:22:08.254Z,7.40
2018-04-25T23:24:42.514Z,7.77
2018-04-25T23:27:16.903Z,7.50
2018-04-25T23:29:51.875Z,7.40
2018-04-25T23:32:26.662Z,7.70
2018-04-25T23:35:01.666Z,8.23
2018-04-25T23:37:36.661Z,8.13
2018-04-25T23:40:11.646Z,8.40
2018-04-25T23:42:47.052Z,7.10
2018-04-25T23:45:22.045Z,7.07
2018-04-25T23:47:57.035Z,7.40
2018-04-25T23:50:32.118Z,5.47
2018-04-25T23:53:06.559Z,5.83
2018-04-25T23:55:41.755Z,6.60
2018-04-25T23:58:16.656Z,5.97
